Aviation Digital Data Service (ADDS)

Output produced by METARs form (0646 UTC 08 May 2021)
found at http://www.aviationweather.gov/metar/data/
 
LECO 080630Z 18008KT 140V210 9999 FEW019 15/12 Q1012 NOSIG
TAF LECO 080200Z 0803/0903 22008KT 9999 BKN025 TX22/0814Z TN12/0805Z 
     PROB30 
     TEMPO 0803/0807 3000 BR 
     TEMPO 0809/0903 21016G29KT
       
LEAB 080630Z 14005KT 110V180 CAVOK 16/08 Q1018 NOSIG
TAF LEAB 080500Z 0806/0906 16008KT CAVOK TX27/0815Z TN11/0806Z 
     BECMG 0810/0812 18012KT 
     PROB40 
     TEMPO 0812/0818 18015G27KT 
     PROB40 
     TEMPO 0903/0906 3000 RA SHRA BKN012 SCT020TCU
       
LERI 080630Z 00000KT CAVOK 16/10 Q1018 NOSIG
TAF LERI 080500Z 0806/0906 VRB02KT CAVOK TX30/0814Z TN11/0806Z 
     BECMG 0810/0812 12010KT 
     BECMG 0819/0821 VRB02KT
       
LEAL 080630Z 04005KT 010V100 9999 SCT006 18/12 Q1018 NOSIG
TAF LEAL 080500Z 0806/0906 05004KT 9999 FEW020 TX22/0812Z TN14/0806Z 
     PROB30 
     TEMPO 0806/0808 4000 BR BKN008 
     BECMG 0807/0809 08011KT 
     BECMG 0819/0821 03006KT
       
LEAM 080630Z 34015KT CAVOK 21/08 Q1016
TAF LEAM 080500Z 0806/0906 35007KT CAVOK TX29/0814Z TN17/0806Z 
     BECMG 0808/0810 09010KT 
     BECMG 0820/0822 24008KT
       
LEGA 080630Z VRB02KT CAVOK 16/06 Q1018
TAF LEGA 080500Z 0806/0906 VRB02KT CAVOK TX30/0815Z TN10/0806Z 
     BECMG 0808/0810 18012KT 
     PROB40 
     TEMPO 0820/0823 18018G28KT 
     PROB30 
     TEMPO 0900/0903 SHRA SCT050TCU
       
LEAS 080630Z 25006KT CAVOK 12/10 Q1013 NOSIG
TAF LEAS 080200Z 0803/0903 VRB06KT 9999 FEW035 TX20/0814Z TN11/0805Z 
     TEMPO 0811/0819 05011KT
       
LEMD 080630Z 33003KT 300V360 CAVOK 11/08 Q1017 NOSIG
TAF LEMD 080500Z 0806/0912 01005KT CAVOK TX29/0816Z TN09/0806Z 
     PROB30 
     TEMPO 0806/0810 12007KT 
     BECMG 0810/0812 20012KT 
     PROB40 
     TEMPO 0813/0818 22015G26KT
       
LEBL 080630Z 33008KT CAVOK 17/12 Q1018 NOSIG
TAF LEBL 080500Z 0806/0906 34008KT 9999 FEW020 TX21/0812Z TN15/0806Z 
     BECMG 0808/0810 21010KT 
     BECMG 0819/0821 04005KT
       
LEBB 080630Z 00000KT CAVOK 17/13 Q1013 NOSIG
TAF LEBB 080500Z 0806/0906 VRB04KT CAVOK TX32/0815Z TN14/0806Z 
     TEMPO 0806/0818 19011KT 
     TEMPO 0811/0816 18015G25KT 
     TEMPO 0816/0820 33015KT 
     TEMPO 0900/0906 19010KT
       
LEBG 080630Z VRB02KT CAVOK 13/10 Q1016
TAF LEBG 080200Z 0803/0903 21014KT CAVOK TX25/0815Z TN09/0805Z 
     PROB40 
     TEMPO 0812/0819 20018G30KT
       
LEBA 080630Z 09005KT CAVOK 13/09 Q1016
TAF LEBA 080200Z 0803/0903 VRB02KT CAVOK TX31/0815Z TN11/0806Z 
     BECMG 0810/0812 22010KT
       
LEVS 080630Z VRB01KT CAVOK 17/09 Q1017
TAF LEVS 080500Z 0806/0906 VRB04KT CAVOK TX29/0815Z TN14/0806Z 
     PROB40 
     TEMPO 0806/0810 12008KT 
     BECMG 0810/0812 20012KT 
     PROB40 
     TEMPO 0813/0818 22015G26KT
       
GCFV 080630Z 36008KT 9999 FEW030 18/14 Q1016
TAF GCFV 080200Z 0803/0903 35009KT 9999 FEW025 TX25/0814Z TN18/0806Z 
     PROB30 
     TEMPO 0810/0819 05012KT
       
LEGT 080630Z VRB01KT CAVOK 15/10 Q1017
TAF LEGT 080500Z 0806/0906 06004KT CAVOK TX29/0815Z TN12/0806Z 
     PROB40 
     TEMPO 0806/0810 12008KT 
     BECMG 0810/0812 20012KT 
     PROB40 
     TEMPO 0813/0818 22015G26KT
       
LEGE 080630Z 21006KT 9999 FEW010 15/13 Q1018
TAF LEGE 080500Z 0806/0906 20005KT 9999 FEW040 TX26/0813Z TN11/0806Z 
     BECMG 0807/0809 19012KT 
     TEMPO 0811/0818 19018G30KT 
     BECMG 0822/0824 20004KT
       
GCLP 080630Z 36010KT 9999 FEW025 SCT035 19/14 Q1017 NOSIG
TAF GCLP 080200Z 0803/0903 36017KT 9999 FEW025 TX24/0814Z TN18/0806Z
       
LEGR 080630Z 00000KT CAVOK 12/08 Q1018
TAF LEGR 080500Z 0806/0906 VRB02KT CAVOK TX31/0815Z TN09/0806Z 
     BECMG 0808/0810 18010KT 
     PROB30 
     TEMPO 0900/0903 SHRA SCT050TCU 
     BECMG 0823/0901 VRB02KT
       
GCHI 080630Z 01011KT 330V050 9999 FEW024 SCT042 19/14 Q1018
TAF GCHI 080200Z 0803/0903 36009KT 9999 SCT025 TX23/0814Z TN19/0806Z
       
LEIB 080630Z 10003KT 050V150 9000 OVC008 18/18 Q1019 NOSIG
TAF LEIB 080200Z 0803/0903 09010KT 9999 FEW015 TX24/0812Z TN15/0805Z 
     TEMPO 0803/0809 09004KT 
     PROB40 
     TEMPO 0803/0808 2000 BR BKN004
       
LEJR 080630Z VRB01KT CAVOK 15/11 Q1015
TAF LEJR 080200Z 0803/0903 16005KT CAVOK TX29/0814Z TN10/0806Z 
     BECMG 0810/0812 24012KT
       
GCGM 080630Z 31005KT 9999 FEW020 17/12 Q1018 RMK R09/32005KT 300V360 ARP/35006KT
TAF GCGM 080200Z 0803/0903 25006KT 9999 SCT030 TX23/0814Z TN18/0806Z
       
GCLA 080630Z VRB02KT 9999 FEW035 18/10 Q1018
TAF GCLA 080200Z 0803/0903 33008KT 9999 SCT030 TX25/0814Z TN19/0806Z 
     BECMG 0809/0811 03010KT
       
GCRR 080630Z 34018G28KT 9999 FEW030 19/14 Q1016
TAF GCRR 080200Z 0803/0903 36013KT 9999 FEW025 TX25/0814Z TN17/0806Z 
     PROB30 
     TEMPO 0805/0812 36023KT 
     BECMG 0819/0821 35003KT
       
LELN 080630Z 02003KT CAVOK 10/06 Q1016
TAF LELN 080200Z 0803/0903 34006KT CAVOK TX24/0815Z TN07/0805Z 
     BECMG 0806/0807 20015KT 
     PROB40 
     TEMPO 0812/0818 20018G30KT
       
LEMG 080630Z 29008KT CAVOK 15/12 Q1015 NOSIG
TAF LEMG 080500Z 0806/0906 29007KT CAVOK TX23/0814Z TN13/0806Z 
     BECMG 0808/0810 13009KT 
     PROB30 
     TEMPO 0821/0901 SHRA SCT050TCU 
     BECMG 0901/0903 29005KT
       
GEML 080630Z 00000KT CAVOK 19/14 Q1016
TAF GEML 080500Z 0806/0906 06005KT CAVOK TX24/0811Z TN15/0806Z 
     TEMPO 0818/0903 27010KT
       
LEMH 080630Z 20004KT 170V230 9999 FEW002 17/16 Q1019
TAF AMD LEMH 080401Z 0804/0903 VRB03KT 9999 FEW020 TX21/0812Z TN13/0805Z 
     TEMPO 0804/0807 0800 BCFG VV001 
     BECMG 0806/0808 17010KT 
     BECMG 0816/0818 12011KT
       
LEMO 080630Z VRB01KT CAVOK 15/09 Q1015 NOSIG
TAF LEMO 080200Z 0803/0903 16005KT CAVOK TX30/0814Z TN11/0806Z 
     BECMG 0811/0813 23012KT
       
LEPP 080630Z VRB02KT CAVOK 12/11 Q1017
TAF LEPP 080200Z 0803/0903 VRB05KT 9999 FEW030 TX30/0815Z TN10/0804Z 
     PROB30 
     TEMPO 0803/0806 3000 BR 
     TEMPO 0808/0903 17012KT 
     TEMPO 0809/0903 17017G32KT
       
LERS 080630Z VRB02KT 9999 BKN019 19/13 Q1018
TAF LERS 080200Z 0803/0903 VRB03KT 9999 SCT020 TX21/0812Z TN13/0806Z 
     TEMPO 0803/0806 02007KT 
     PROB40 
     TEMPO 0803/0812 BKN010 
     BECMG 0807/0809 14010KT 
     BECMG 0816/0818 VRB03KT
       
LERT 080630Z 08004KT CAVOK 16/11 Q1014 NOSIG
TAF LERT 080200Z 0803/0903 15005KT CAVOK TX26/0813Z TN13/0806Z 
     BECMG 0810/0812 24012KT
       
LESA 080630Z 00000KT CAVOK 10/07 Q1016
TAF LESA 080200Z 0803/0903 26008KT CAVOK TX26/0815Z TN10/0805Z 
     BECMG 0806/0807 20015KT 
     PROB40 
     TEMPO 0812/0818 20018G30KT
       
LESO 080630Z VRB01KT CAVOK 15/13 Q1013
TAF LESO 080500Z 0806/0906 VRB05KT 9999 SCT035 TX28/0815Z TN13/0806Z 
     TEMPO 0807/0815 18012KT 
     TEMPO 0813/0819 34011KT 
     TEMPO 0900/0906 18012KT 
     TEMPO 0900/0906 18016G26KT
       
LEXJ 080630Z VRB01KT CAVOK 13/11 Q1012
TAF LEXJ 080200Z 0803/0903 13005KT 9999 SCT035 TX21/0814Z TN11/0805Z 
     PROB30 
     TEMPO 0803/0807 3000 BR 
     TEMPO 0811/0819 33010KT
       
LEST 080630Z 20007KT 170V240 9999 FEW015 BKN028 12/10 Q1013 NOSIG
TAF LEST 080500Z 0806/0906 19008KT 9999 FEW010 SCT025 TX19/0814Z TN09/0906Z 
     TEMPO 0806/0807 BKN010 
     TEMPO 0811/0824 22015G28KT 
     TEMPO 0903/0906 3000 RA BKN010
       
TAF LESU 080200Z 0803/0903 VRB04KT 9999 FEW025 TX27/0814Z TN09/0806Z 
     PROB30 
     TEMPO 0803/0806 3000 BR BKN010 
     BECMG 0809/0811 20011KT 
     BECMG 0818/0820 VRB03KT
       
LEZL 080630Z VRB01KT CAVOK 15/10 Q1015 NOSIG
TAF LEZL 080200Z 0803/0903 17005KT CAVOK TX30/0814Z TN14/0806Z 
     BECMG 0810/0812 23010KT
       
LESB 080630Z AUTO 02003KT 330V050 CAVOK 20/11 Q1020
LEBZ 080630Z VRB01KT CAVOK 14/12 Q1015
TAF LEBZ 080200Z 0803/0903 VRB02KT CAVOK TX29/0814Z TN13/0806Z 
     BECMG 0810/0812 23012KT
       
GCXO 080630Z 31012KT 9999 FEW005 BKN010 14/12 Q1019 NOSIG
TAF GCXO 080200Z 0803/0903 30013KT 9999 SCT020 TX20/0814Z TN13/0806Z 
     TEMPO 0803/0810 BKN005
       
GCTS 080630Z 09007KT 9999 FEW030 19/13 Q1018 NOSIG
TAF GCTS 080200Z 0803/0903 09009KT 9999 FEW035 TX25/0814Z TN17/0806Z 
     TEMPO 0803/0815 27010KT
       
LETO 080630Z 03005KT CAVOK 10/08 Q1017 NOSIG
TAF LETO 080500Z 0806/0906 02006KT CAVOK TX27/0815Z TN08/0806Z 
     PROB40 
     TEMPO 0806/0810 12008KT 
     BECMG 0810/0812 20012KT 
     PROB40 
     TEMPO 0813/0818 22015G26KT
       
LEVC 080630Z VRB01KT 8000 SCT012 18/14 Q1019 NOSIG
TAF LEVC 080500Z 0806/0906 10010KT 9999 FEW020 TX25/0812Z TN15/0806Z 
     PROB40 
     TEMPO 0806/0808 4000 BR BKN008 
     TEMPO 0806/0810 06004KT 
     BECMG 0816/0818 05005KT
       
LEVD 080630Z VRB01KT CAVOK 12/09 Q1016
TAF LEVD 080200Z 0803/0903 21006KT CAVOK TX25/0815Z TN10/0806Z 
     BECMG 0806/0807 20014KT 
     PROB40 
     TEMPO 0812/0818 20016G27KT
       
LEVX 080630Z 22005KT 0200 R19/0650D R01/0250N FG VV001 10/10 Q1014 TEMPO 0600
TAF LEVX 080500Z 0806/0906 20005KT 9999 SCT025 TX19/0814Z TN11/0806Z 
     PROB30 
     TEMPO 0806/0807 0350 FG VV001 
     PROB30 
     TEMPO 0813/0820 19015G25KT 
     TEMPO 0902/0906 3000 RA BKN010
       
LEVT 080630Z 00000KT 0900 R04/0750D R22/0600D FG BKN002 11/10 Q1016
TAF LEVT 080500Z 0806/0906 VRB04KT 9999 SCT011 TX30/0815Z TN10/0806Z 
     TEMPO 0806/0808 1500 BR BCFG 
     PROB30 
     TEMPO 0806/0807 0350 BCFG BKN003 
     TEMPO 0809/0906 19010KT 
     PROB40 
     TEMPO 0811/0819 21015G25KT
       
LEZG 080630Z 11010KT CAVOK 16/13 Q1017
TAF LEZG 080500Z 0806/0906 11012KT 9999 FEW050 TX33/0814Z TN16/0806Z 
     TEMPO 0812/0813 11013G25KT 
     TEMPO 0814/0816 13018G30KT 
     BECMG 0816/0818 18015G30KT 
     BECMG 0822/0824 09010KT